Time;durP1;ratioP1;P1;durP2;ratioP2;P2;SDS_P1;SDS_P2;PMS_P1;PMS_P2;Temp;Humidity;BMP_temperature;BMP_pressure;BME280_temperature;BME280_humidity;BME280_pressure;Samples;Min_cycle;Max_cycle;Signal;HPM_P1;HPM_P2
2023/05/22 00:01:55;;;;;;;8.10;4.70;;;;;;;15.36;47.28;100853.14;109061;1253;66180;-52
2023/05/22 00:04:22;;;;;;;8.20;4.80;;;;;;;15.21;47.27;100855.39;109045;1253;66574;-49
2023/05/22 00:06:49;;;;;;;8.60;4.40;;;;;;;15.17;47.23;100854.32;109021;1253;58341;-50
2023/05/22 00:09:16;;;;;;;11.30;5.50;;;;;;;15.15;47.48;100851.50;109094;1253;58327;-50
2023/05/22 00:11:43;;;;;;;8.50;4.70;;;;;;;15.13;47.41;100849.55;109077;1253;67293;-50
2023/05/22 00:14:12;;;;;;;9.60;5.20;;;;;;;15.12;47.34;100849.71;109016;1258;63990;-50
2023/05/22 00:16:39;;;;;;;10.40;5.30;;;;;;;15.09;47.48;100850.16;109049;1253;67868;-50
2023/05/22 00:19:11;;;;;;;8.30;4.90;;;;;;;15.03;47.67;100849.61;109126;1253;59412;-50
2023/05/22 00:22:04;;;;;;;10.00;4.90;;;;;;;15.03;47.69;100847.69;109051;1257;58356;-50
2023/05/22 00:24:34;;;;;;;9.40;5.00;;;;;;;14.99;47.83;100845.04;109030;1253;67272;-50
2023/05/22 00:27:01;;;;;;;8.80;5.00;;;;;;;14.96;47.94;100843.70;109078;1253;62579;-50
2023/05/22 00:29:28;;;;;;;7.50;4.80;;;;;;;14.92;48.05;100840.86;109076;1253;66162;-49
2023/05/22 00:31:56;;;;;;;7.10;4.70;;;;;;;14.89;48.16;100843.09;108947;1253;58526;-50
2023/05/22 00:34:23;;;;;;;9.40;5.10;;;;;;;14.87;48.29;100843.11;108987;1253;58376;-50
2023/05/22 00:36:50;;;;;;;10.00;5.90;;;;;;;14.84;48.32;100844.48;109015;1253;67544;-50
2023/05/22 00:39:17;;;;;;;10.30;5.10;;;;;;;14.80;48.26;100847.80;109129;1257;62445;-50
2023/05/22 00:41:44;;;;;;;7.90;5.00;;;;;;;14.78;48.40;100848.56;109035;1257;66016;-50
2023/05/22 00:44:12;;;;;;;9.70;5.20;;;;;;;14.76;48.44;100846.06;108879;1253;58435;-50
2023/05/22 00:46:39;;;;;;;8.40;4.70;;;;;;;14.73;48.49;100842.77;109033;1257;59113;-50
2023/05/22 00:49:06;;;;;;;6.80;4.60;;;;;;;14.71;48.36;100843.31;109030;1259;67948;-50
2023/05/22 00:51:33;;;;;;;10.70;4.80;;;;;;;14.70;48.16;100843.95;108894;1252;63498;-50
2023/05/22 00:54:00;;;;;;;9.60;5.30;;;;;;;14.69;48.23;100844.90;108969;1256;66180;-50
2023/05/22 00:56:27;;;;;;;9.20;5.00;;;;;;;14.68;48.16;100842.98;108960;1253;61452;-49
2023/05/22 00:58:55;;;;;;;7.50;4.60;;;;;;;14.68;48.21;100843.55;109117;1253;58148;-50
2023/05/22 01:01:22;;;;;;;10.00;5.20;;;;;;;14.68;48.33;100843.77;108897;1253;67520;-50
2023/05/22 01:03:49;;;;;;;11.10;5.40;;;;;;;14.62;48.49;100843.75;109019;1253;63697;-50
2023/05/22 01:06:17;;;;;;;8.50;4.70;;;;;;;14.59;48.73;100842.95;108974;1259;66437;-50
2023/05/22 01:08:44;;;;;;;8.20;4.60;;;;;;;14.56;48.80;100844.08;109088;1253;60507;-49
2023/05/22 01:11:17;;;;;;;8.80;4.80;;;;;;;14.56;48.72;100844.09;108894;1253;58248;-51
2023/05/22 01:14:03;;;;;;;7.90;4.30;;;;;;;14.56;48.62;100838.27;108933;1253;66103;-50
2023/05/22 01:16:58;;;;;;;7.60;4.50;;;;;;;14.55;48.62;100838.02;109028;1257;63582;-50
2023/05/22 01:23:37;;;;;;;7.30;4.90;;;;;;;14.53;48.65;100836.13;109075;1253;58884;-51
2023/05/22 01:26:11;;;;;;;9.80;4.90;;;;;;;14.53;48.61;100832.75;109069;1253;59216;-50
2023/05/22 01:28:55;;;;;;;6.90;4.50;;;;;;;14.60;48.63;100831.02;109162;1253;67548;-50
2023/05/22 01:31:26;;;;;;;10.70;4.70;;;;;;;14.67;48.49;100831.11;108955;1257;63869;-50
2023/05/22 01:33:55;;;;;;;7.90;4.30;;;;;;;14.66;48.45;100830.89;108876;1254;64784;-51
2023/05/22 01:36:25;;;;;;;8.40;5.00;;;;;;;14.63;48.53;100832.33;108834;1252;58417;-51
2023/05/22 01:38:51;;;;;;;8.10;5.00;;;;;;;14.60;48.62;100831.56;108967;1253;58777;-50
2023/05/22 01:41:18;;;;;;;8.10;5.00;;;;;;;14.56;48.69;100829.79;108824;1253;67116;-50
2023/05/22 01:43:46;;;;;;;6.10;3.90;;;;;;;14.36;48.90;100828.27;108877;1253;64118;-50
2023/05/22 01:46:13;;;;;;;7.80;5.00;;;;;;;14.27;49.02;100828.67;109082;1254;66742;-50
2023/05/22 01:48:40;;;;;;;7.50;4.70;;;;;;;14.22;49.16;100836.84;108860;1253;58560;-53
2023/05/22 01:51:17;;;;;;;7.00;4.30;;;;;;;14.19;49.35;100833.94;109048;1254;58232;-50
2023/05/22 01:54:04;;;;;;;7.50;4.60;;;;;;;14.16;49.83;100824.35;108932;1255;67628;-51
2023/05/22 01:56:55;;;;;;;10.10;5.50;;;;;;;14.13;49.75;100825.86;108648;1265;63763;-51
2023/05/22 01:59:31;;;;;;;7.70;5.00;;;;;;;14.09;49.88;100823.20;108841;1254;66158;-51
2023/05/22 02:02:02;;;;;;;6.90;4.40;;;;;;;14.05;50.09;100820.14;108935;1257;58688;-51
2023/05/22 02:04:29;;;;;;;7.80;4.40;;;;;;;14.03;50.17;100817.18;109059;1255;58401;-51
2023/05/22 02:06:57;;;;;;;9.20;5.20;;;;;;;14.01;50.18;100818.63;108971;1259;67877;-50
2023/05/22 02:09:24;;;;;;;8.40;4.60;;;;;;;14.01;50.28;100821.61;108688;1258;64068;-50
2023/05/22 02:11:51;;;;;;;8.10;4.80;;;;;;;13.99;50.50;100822.69;108870;1254;64840;-51
2023/05/22 02:14:18;;;;;;;11.80;4.90;;;;;;;13.98;50.71;100821.68;109037;1254;59239;-52
2023/05/22 02:16:46;;;;;;;8.80;4.80;;;;;;;13.98;50.76;100822.07;108955;1253;59018;-51
2023/05/22 02:19:25;;;;;;;7.80;4.80;;;;;;;13.97;50.88;100822.48;108784;1254;67365;-52
2023/05/22 02:21:56;;;;;;;6.50;4.10;;;;;;;13.96;50.98;100815.88;109040;1253;62466;-51
2023/05/22 02:24:22;;;;;;;8.70;5.20;;;;;;;13.94;50.95;100818.27;108556;1257;65790;-52
2023/05/22 02:26:50;;;;;;;8.80;4.50;;;;;;;13.92;51.00;100814.95;108737;1257;58908;-52
2023/05/22 02:29:17;;;;;;;6.40;4.30;;;;;;;13.91;50.85;100814.69;108899;1255;58525;-51
2023/05/22 02:31:44;;;;;;;9.50;5.10;;;;;;;13.91;50.75;100816.30;108746;1254;68014;-51
2023/05/22 02:34:11;;;;;;;8.20;4.70;;;;;;;13.90;50.96;100813.02;108786;1259;63125;-51
2023/05/22 02:36:39;;;;;;;8.60;4.80;;;;;;;13.89;51.08;100813.80;108820;1257;65070;-53
2023/05/22 02:39:07;;;;;;;10.30;4.90;;;;;;;13.89;51.04;100812.73;108735;1254;58596;-51
2023/05/22 02:41:34;;;;;;;8.50;4.80;;;;;;;13.89;51.01;100811.20;108815;1257;59197;-51
2023/05/22 02:44:07;;;;;;;8.10;4.60;;;;;;;13.89;51.18;100811.88;108765;1259;66107;-52
2023/05/22 02:46:37;;;;;;;8.20;4.50;;;;;;;13.91;51.23;100813.27;108156;1264;63810;-51
2023/05/22 02:49:04;;;;;;;7.70;4.70;;;;;;;13.92;51.18;100815.98;108464;1265;66027;-51
2023/05/22 02:51:31;;;;;;;8.20;3.90;;;;;;;13.94;50.96;100817.40;108476;1264;58259;-50
2023/05/22 02:53:58;;;;;;;8.50;4.70;;;;;;;13.97;50.74;100818.24;108648;1263;61368;-50
2023/05/22 02:56:27;;;;;;;8.20;4.70;;;;;;;14.01;50.49;100815.64;108458;1264;67223;-51
2023/05/22 02:58:55;;;;;;;7.20;4.50;;;;;;;14.10;50.19;100815.55;108636;1258;62468;-51
2023/05/22 03:01:25;;;;;;;9.00;4.70;;;;;;;14.20;49.93;100816.97;108607;1262;66339;-50
2023/05/22 03:03:53;;;;;;;9.60;4.70;;;;;;;14.10;50.21;100821.88;108930;1257;58718;-50
2023/05/22 03:06:22;;;;;;;7.20;4.40;;;;;;;14.08;50.32;100824.46;108730;1261;59350;-49
2023/05/22 03:08:49;;;;;;;9.20;4.40;;;;;;;14.11;50.27;100827.62;108583;1257;67028;-49
2023/05/22 03:11:16;;;;;;;7.20;4.50;;;;;;;14.13;50.03;100827.23;108630;1257;63734;-50
2023/05/22 03:13:43;;;;;;;8.00;4.60;;;;;;;14.15;50.24;100829.74;108769;1257;65984;-50
2023/05/22 03:16:10;;;;;;;8.30;4.60;;;;;;;14.18;50.38;100831.42;108772;1257;58772;-50
2023/05/22 03:18:40;;;;;;;10.00;4.20;;;;;;;14.19;49.94;100832.55;108859;1254;58627;-50
2023/05/22 03:21:10;;;;;;;7.10;4.70;;;;;;;14.21;49.94;100834.45;109048;1254;65816;-50
2023/05/22 03:23:43;;;;;;;7.00;4.10;;;;;;;14.25;49.83;100832.52;108695;1255;62968;-51
2023/05/22 03:26:13;;;;;;;8.60;4.90;;;;;;;14.29;49.68;100829.55;108446;1254;66788;-49
2023/05/22 03:28:40;;;;;;;14.50;5.20;;;;;;;14.31;49.55;100828.46;108906;1254;58470;-50
2023/05/22 03:31:08;;;;;;;8.20;4.70;;;;;;;14.34;49.47;100829.44;108945;1253;58132;-50
2023/05/22 03:33:44;;;;;;;7.90;4.50;;;;;;;14.39;49.63;100826.93;108827;1252;66337;-49
2023/05/22 03:36:11;;;;;;;8.80;4.50;;;;;;;14.44;49.64;100826.27;108828;1254;62947;-50
2023/05/22 03:38:38;;;;;;;8.50;4.80;;;;;;;14.50;49.48;100825.40;108847;1255;66817;-49
2023/05/22 03:41:06;;;;;;;8.50;4.40;;;;;;;14.54;49.11;100824.30;108962;1253;58520;-49
2023/05/22 03:43:33;;;;;;;7.00;4.20;;;;;;;14.58;49.03;100827.55;108968;1253;58254;-49
2023/05/22 03:46:00;;;;;;;7.60;4.60;;;;;;;14.61;48.93;100828.18;108927;1252;66263;-50
2023/05/22 03:48:27;;;;;;;7.50;4.40;;;;;;;14.64;49.08;100831.55;108761;1254;74795;-50
2023/05/22 03:51:19;;;;;;;9.20;4.80;;;;;;;14.67;48.83;100830.72;108801;1254;64726;-50
2023/05/22 03:53:49;;;;;;;7.00;4.70;;;;;;;14.76;48.87;100827.83;108796;1254;58947;-50
2023/05/22 03:56:16;;;;;;;7.80;4.70;;;;;;;14.78;48.87;100829.61;108805;1254;58775;-50
2023/05/22 03:58:42;;;;;;;8.60;4.30;;;;;;;14.81;48.57;100828.28;108998;1257;67652;-50
2023/05/22 04:01:10;;;;;;;8.30;4.80;;;;;;;14.84;48.56;100824.79;109046;1255;65905;-50
2023/05/22 04:03:37;;;;;;;8.80;4.70;;;;;;;14.90;48.48;100827.85;109051;1253;65825;-50
2023/05/22 04:06:04;;;;;;;7.60;4.60;;;;;;;15.09;48.01;100828.90;108896;1257;59681;-50
2023/05/22 04:08:31;;;;;;;13.50;5.00;;;;;;;15.19;47.95;100824.32;109030;1253;58393;-51
2023/05/22 04:10:59;;;;;;;9.30;4.20;;;;;;;15.14;48.20;100823.92;108925;1254;67270;-51
2023/05/22 04:13:26;;;;;;;9.00;4.40;;;;;;;15.11;48.30;100824.88;109077;1254;63673;-51
2023/05/22 04:15:53;;;;;;;9.20;4.70;;;;;;;15.13;48.54;100824.13;108978;1254;66272;-50
2023/05/22 04:18:20;;;;;;;8.10;4.50;;;;;;;15.18;48.71;100823.54;109049;1253;60030;-50
2023/05/22 04:20:50;;;;;;;8.00;4.20;;;;;;;15.22;48.57;100826.85;108983;1254;58263;-50
2023/05/22 04:23:17;;;;;;;7.10;4.70;;;;;;;15.26;48.56;100825.73;109043;1254;66233;-50
2023/05/22 04:25:46;;;;;;;7.20;4.60;;;;;;;15.28;48.21;100822.77;109014;1253;63777;-50
2023/05/22 04:28:16;;;;;;;10.70;5.20;;;;;;;15.31;48.30;100817.20;109033;1254;65986;-50
2023/05/22 04:30:45;;;;;;;8.70;4.00;;;;;;;15.35;47.94;100812.42;109050;1254;58705;-50
2023/05/22 04:33:12;;;;;;;8.50;4.50;;;;;;;15.38;48.05;100809.26;108950;1253;58609;-50
2023/05/22 04:35:43;;;;;;;7.80;4.20;;;;;;;15.44;48.15;100810.87;109122;1253;67681;-51
2023/05/22 04:38:10;;;;;;;10.20;4.70;;;;;;;15.51;48.37;100812.49;108909;1254;62829;-50
2023/05/22 04:40:36;;;;;;;8.10;4.60;;;;;;;15.58;48.15;100810.79;109039;1254;65120;-50
2023/05/22 04:43:05;;;;;;;8.00;4.90;;;;;;;15.64;48.08;100808.95;108879;1254;58428;-52
2023/05/22 04:45:32;;;;;;;7.40;4.40;;;;;;;15.72;47.84;100810.86;109109;1257;59046;-50
2023/05/22 04:48:01;;;;;;;8.70;4.50;;;;;;;15.80;47.45;100811.85;108935;1254;76010;-50
2023/05/22 04:50:31;;;;;;;8.30;4.10;;;;;;;15.88;47.37;100814.37;109042;1254;75357;-49
2023/05/22 04:52:58;;;;;;;8.30;4.60;;;;;;;15.95;47.62;100817.04;108950;1254;66637;-54
2023/05/22 04:55:25;;;;;;;10.10;4.30;;;;;;;16.02;47.64;100818.82;109077;1253;60421;-54
2023/05/22 04:57:52;;;;;;;7.40;4.30;;;;;;;16.10;47.63;100821.06;109011;1254;58306;-53
2023/05/22 05:00:25;;;;;;;10.20;4.50;;;;;;;16.17;47.69;100821.41;108987;1253;67270;-54
2023/05/22 05:02:52;;;;;;;7.40;4.10;;;;;;;16.22;47.62;100816.02;108936;1252;62756;-54
2023/05/22 05:05:19;;;;;;;7.30;4.50;;;;;;;16.29;47.37;100815.14;109081;1253;66473;-54
2023/05/22 05:07:47;;;;;;;8.10;4.30;;;;;;;16.38;47.09;100810.55;108979;1253;59106;-53
2023/05/22 05:10:16;;;;;;;6.80;4.30;;;;;;;16.48;47.19;100810.84;108932;1254;60357;-53
2023/05/22 05:12:43;;;;;;;6.80;4.00;;;;;;;16.57;46.18;100812.96;108939;1254;67433;-60
2023/05/22 05:15:10;;;;;;;7.20;4.40;;;;;;;16.65;45.81;100809.31;108916;1254;63034;-59
2023/05/22 05:17:38;;;;;;;6.70;3.90;;;;;;;16.74;45.29;100810.37;108927;1254;65102;-60
2023/05/22 05:20:07;;;;;;;7.50;3.60;;;;;;;16.84;45.17;100807.27;109079;1253;61014;-61
2023/05/22 05:22:36;;;;;;;6.80;3.40;;;;;;;16.93;44.79;100803.21;108964;1253;58238;-59
2023/05/22 05:25:04;;;;;;;8.50;4.60;;;;;;;17.02;44.48;100803.94;108973;1253;67955;-59
2023/05/22 05:27:31;;;;;;;10.10;4.10;;;;;;;17.13;43.81;100803.20;108847;1253;63543;-59
2023/05/22 05:29:59;;;;;;;6.30;3.70;;;;;;;17.22;43.32;100800.52;108943;1253;65138;-59
2023/05/22 05:32:37;;;;;;;6.70;4.10;;;;;;;17.31;43.44;100803.65;109022;1253;58136;-59
2023/05/22 05:35:49;;;;;;;12.30;4.30;;;;;;;17.43;43.06;100799.79;106929;1257;59312;-59
2023/05/22 05:38:22;;;;;;;6.00;3.10;;;;;;;17.51;42.97;100804.42;108735;1259;67459;-60
2023/05/22 05:40:52;;;;;;;6.70;3.90;;;;;;;17.58;42.81;100807.23;108622;1254;63386;-60
2023/05/22 05:43:19;;;;;;;9.50;3.80;;;;;;;17.65;42.73;100805.47;108905;1253;65964;-56
2023/05/22 05:46:16;;;;;;;6.90;3.40;;;;;;;17.74;42.57;100806.01;108847;1253;58899;-60
2023/05/22 05:48:43;;;;;;;7.30;4.20;;;;;;;17.83;42.87;100804.15;108973;1253;59261;-60
2023/05/22 05:51:10;;;;;;;8.00;3.90;;;;;;;17.92;42.72;100798.66;108954;1253;67020;-60
2023/05/22 05:53:40;;;;;;;7.80;4.00;;;;;;;18.01;42.33;100797.03;108993;1253;63466;-64
2023/05/22 05:56:10;;;;;;;8.70;4.90;;;;;;;18.09;41.79;100795.46;108934;1256;66201;-59
2023/05/22 05:58:40;;;;;;;8.10;4.00;;;;;;;18.15;41.42;100795.71;108911;1253;58567;-60
2023/05/22 06:01:26;;;;;;;7.40;4.10;;;;;;;18.21;41.50;100796.31;108976;1253;58920;-64
2023/05/22 06:03:58;;;;;;;5.20;3.00;;;;;;;18.27;41.65;100794.50;108917;1253;67547;-62
2023/05/22 06:06:39;;;;;;;8.00;4.40;;;;;;;18.34;41.28;100794.38;108576;1261;63851;-61
2023/05/22 06:09:23;;;;;;;8.50;3.70;;;;;;;18.42;41.08;100791.40;108658;1253;65040;-57
2023/05/22 06:12:20;;;;;;;7.20;4.50;;;;;;;18.48;40.95;100789.84;108524;1260;58290;-61
2023/05/22 06:14:47;;;;;;;6.60;3.80;;;;;;;18.54;40.98;100790.31;108942;1253;59026;-63
2023/05/22 06:18:04;;;;;;;6.50;3.70;;;;;;;18.61;41.19;100786.20;108968;1254;67193;-62
2023/05/22 06:20:47;;;;;;;7.40;3.90;;;;;;;18.72;41.85;100788.55;108821;1253;209066;-61
2023/05/22 06:35:11;;;;;;;6.70;3.70;;;;;;;19.13;40.75;100786.89;102157;1287;604407;-61
2023/05/22 06:37:41;;;;;;;8.00;4.20;;;;;;;19.64;39.87;100784.20;103493;1270;135236;-62
2023/05/22 06:40:09;;;;;;;10.00;4.30;;;;;;;19.64;39.63;100782.33;103893;1266;59619;-59
2023/05/22 06:43:00;;;;;;;6.80;3.60;;;;;;;19.67;39.31;100779.80;108157;1270;65651;-63
2023/05/22 06:45:45;;;;;;;6.10;3.60;;;;;;;19.68;39.29;100782.63;108061;1267;64037;-58
2023/05/22 06:48:33;;;;;;;6.20;3.30;;;;;;;19.71;39.73;100780.61;107979;1272;64885;-58
2023/05/22 06:51:15;;;;;;;7.90;3.30;;;;;;;19.74;38.99;100778.44;108053;1271;57122;-58
2023/05/22 06:53:45;;;;;;;5.60;2.80;;;;;;;19.79;38.98;100775.93;108198;1267;62752;-61
2023/05/22 06:56:16;;;;;;;9.60;3.40;;;;;;;19.86;39.42;100775.00;108479;1263;65712;-61
2023/05/22 06:58:50;;;;;;;7.10;3.20;;;;;;;19.95;39.15;100777.86;108460;1265;65873;-63
2023/05/22 07:01:18;;;;;;;9.00;3.40;;;;;;;20.04;38.94;100777.05;108508;1260;66148;-61
2023/05/22 07:03:56;;;;;;;8.00;3.50;;;;;;;20.12;38.66;100775.20;108440;1261;57461;-59
2023/05/22 07:06:37;;;;;;;7.90;2.80;;;;;;;20.20;38.24;100772.88;108478;1266;57507;-59
2023/05/22 07:09:05;;;;;;;4.70;2.60;;;;;;;20.26;37.48;100772.20;108356;1261;65443;-59
2023/05/22 07:11:32;;;;;;;5.80;3.00;;;;;;;20.31;38.01;100772.94;108418;1261;63550;-62
2023/05/22 07:14:00;;;;;;;6.20;2.50;;;;;;;20.39;38.53;100775.02;108602;1260;64847;-62
2023/05/22 07:16:39;;;;;;;6.80;2.60;;;;;;;20.48;39.13;100772.69;108559;1264;58478;-63
2023/05/22 07:19:10;;;;;;;7.30;3.10;;;;;;;20.59;39.40;100769.23;108414;1261;58533;-62
2023/05/22 07:21:44;;;;;;;9.70;3.00;;;;;;;20.72;39.25;100771.07;108575;1260;65352;-58
2023/05/22 07:24:21;;;;;;;8.40;3.30;;;;;;;20.81;37.44;100765.34;107923;1261;62814;-59
2023/05/22 07:26:56;;;;;;;10.90;3.40;;;;;;;20.85;37.70;100761.91;107706;1265;66065;-63
2023/05/22 07:30:06;;;;;;;6.60;2.70;;;;;;;20.88;37.62;100762.73;107663;1260;58578;-58
2023/05/22 07:32:39;;;;;;;5.80;2.70;;;;;;;20.92;38.03;100764.08;108317;1262;59341;-59
2023/05/22 07:35:09;;;;;;;9.00;3.00;;;;;;;20.97;38.17;100762.72;108421;1260;66755;-61
2023/05/22 07:41:03;;;;;;;6.00;2.70;;;;;;;21.19;37.87;100757.25;107955;1266;65877;-62
2023/05/22 07:44:09;;;;;;;6.00;2.80;;;;;;;21.30;37.34;100755.02;108330;1263;57596;-61
2023/05/22 07:46:39;;;;;;;6.90;2.70;;;;;;;21.38;37.20;100756.14;108497;1263;59323;-64
2023/05/22 07:49:20;;;;;;;6.40;2.90;;;;;;;21.45;37.55;100754.93;107891;1264;66405;-63
2023/05/22 07:51:48;;;;;;;7.50;2.60;;;;;;;21.53;36.64;100751.48;108316;1265;64328;-61
2023/05/22 07:54:17;;;;;;;7.70;2.50;;;;;;;21.60;36.28;100751.50;108280;1264;66025;-62
2023/05/22 07:56:46;;;;;;;4.40;2.30;;;;;;;21.67;36.26;100744.79;108595;1259;58926;-60
2023/05/22 07:59:14;;;;;;;6.10;2.40;;;;;;;21.75;35.86;100742.44;108590;1264;57702;-61
2023/05/22 08:01:41;;;;;;;4.70;2.50;;;;;;;21.81;35.44;100738.98;108668;1258;65171;-59
2023/05/22 08:04:08;;;;;;;8.20;2.80;;;;;;;21.83;34.31;100733.69;108674;1260;62483;-59
2023/05/22 08:06:36;;;;;;;5.20;2.60;;;;;;;21.81;33.41;100730.86;108648;1260;66451;-59
2023/05/22 08:09:03;;;;;;;4.90;2.10;;;;;;;21.82;33.59;100736.39;108581;1263;58065;-62
2023/05/22 08:11:31;;;;;;;5.30;2.40;;;;;;;21.88;33.98;100737.07;108577;1263;57767;-63
2023/05/22 08:13:57;;;;;;;6.30;2.50;;;;;;;21.99;34.15;100736.04;108604;1260;66535;-60
2023/05/22 08:16:24;;;;;;;3.90;2.10;;;;;;;22.13;34.03;100732.77;108596;1263;64148;-60
2023/05/22 08:18:51;;;;;;;5.70;2.50;;;;;;;22.24;33.85;100727.95;108652;1260;64891;-60
2023/05/22 08:21:21;;;;;;;8.10;2.50;;;;;;;22.33;32.69;100730.74;108478;1259;62810;-59
2023/05/22 08:23:49;;;;;;;4.90;2.50;;;;;;;22.39;32.53;100728.41;108651;1257;57484;-63
2023/05/22 08:26:16;;;;;;;4.20;2.10;;;;;;;22.46;32.66;100729.61;108752;1256;65266;-62
2023/05/22 08:28:43;;;;;;;4.50;2.10;;;;;;;22.53;33.27;100729.42;108797;1260;62686;-63
2023/05/22 08:31:11;;;;;;;5.20;2.00;;;;;;;22.62;32.98;100734.36;108767;1261;65120;-62
2023/05/22 08:33:38;;;;;;;4.50;2.20;;;;;;;22.73;31.86;100731.90;108738;1260;58446;-63
2023/05/22 08:36:05;;;;;;;3.90;1.80;;;;;;;22.81;30.67;100732.45;108815;1257;58644;-62
2023/05/22 08:38:32;;;;;;;5.90;2.20;;;;;;;22.89;30.54;100734.55;108867;1258;66179;-63
2023/05/22 08:40:59;;;;;;;4.40;1.80;;;;;;;22.97;30.68;100733.36;108909;1256;63734;-62
2023/05/22 08:43:27;;;;;;;5.60;1.90;;;;;;;23.06;30.89;100733.77;108878;1257;64907;-63
2023/05/22 08:46:04;;;;;;;5.70;2.20;;;;;;;23.16;30.76;100733.02;108746;1262;57589;-61
2023/05/22 08:48:32;;;;;;;6.20;2.60;;;;;;;23.29;31.31;100732.84;108881;1257;57458;-62
2023/05/22 08:51:06;;;;;;;11.30;2.30;;;;;;;23.40;31.08;100733.15;108780;1256;74941;-62
2023/05/22 08:53:34;;;;;;;6.00;2.40;;;;;;;23.50;30.72;100730.69;108748;1257;63983;-62
2023/05/22 08:56:04;;;;;;;6.30;2.30;;;;;;;23.55;30.52;100729.30;108794;1260;66383;-59
2023/05/22 08:58:32;;;;;;;5.20;2.10;;;;;;;23.55;30.29;100725.63;108790;1257;57362;-58
2023/05/22 09:00:59;;;;;;;4.20;2.20;;;;;;;23.55;30.47;100723.76;108788;1256;57606;-59
2023/05/22 09:03:27;;;;;;;5.10;2.20;;;;;;;23.51;30.50;100723.86;108830;1257;66354;-60
2023/05/22 09:05:55;;;;;;;5.10;2.70;;;;;;;23.44;30.80;100729.69;108743;1257;61517;-61
2023/05/22 09:08:22;;;;;;;9.20;2.80;;;;;;;23.37;30.82;100727.13;108793;1257;65418;-61
2023/05/22 09:10:50;;;;;;;5.80;2.20;;;;;;;23.35;30.47;100721.80;108733;1257;57457;-58
2023/05/22 09:13:30;;;;;;;5.30;2.40;;;;;;;23.30;30.88;100723.35;108756;1260;58637;-60
2023/05/22 09:16:54;;;;;;;6.50;2.10;;;;;;;23.20;30.77;100731.47;108769;1262;65080;-62
2023/05/22 09:19:25;;;;;;;8.70;2.60;;;;;;;23.12;31.04;100725.89;104755;1264;62675;-58
2023/05/22 09:22:03;;;;;;;4.40;2.10;;;;;;;23.04;30.58;100722.35;104516;1263;65443;-60
2023/05/22 09:24:36;;;;;;;6.10;2.20;;;;;;;22.94;30.87;100728.52;108765;1260;58071;-61
2023/05/22 09:27:05;;;;;;;4.80;1.80;;;;;;;22.89;30.90;100721.95;108746;1257;57848;-62
2023/05/22 09:29:47;;;;;;;9.80;2.80;;;;;;;22.96;31.60;100720.97;108750;1256;66740;-59
2023/05/22 09:32:15;;;;;;;5.80;2.60;;;;;;;23.10;30.79;100717.03;108753;1258;63760;-65
2023/05/22 09:34:43;;;;;;;4.60;2.00;;;;;;;23.23;30.79;100713.52;108696;1256;66202;-63
2023/05/22 09:37:11;;;;;;;4.70;2.10;;;;;;;23.38;31.48;100711.42;108788;1258;57654;-60
2023/05/22 09:39:41;;;;;;;4.40;2.50;;;;;;;23.54;31.74;100712.18;108774;1257;57510;-60
2023/05/22 09:42:10;;;;;;;7.50;2.10;;;;;;;23.67;30.65;100710.05;108748;1257;66946;-60
2023/05/22 09:44:38;;;;;;;6.80;2.40;;;;;;;23.71;29.91;100707.12;108782;1260;62785;-64
2023/05/22 09:47:05;;;;;;;6.10;2.10;;;;;;;23.77;30.67;100707.43;108774;1257;65988;-60
2023/05/22 09:49:40;;;;;;;4.10;1.80;;;;;;;23.89;29.74;100703.94;108836;1257;57760;-60
2023/05/22 09:52:08;;;;;;;6.60;2.00;;;;;;;23.99;29.31;100703.63;108758;1257;57500;-64
2023/05/22 09:54:35;;;;;;;5.20;2.20;;;;;;;24.06;28.89;100698.11;108844;1257;66756;-63
2023/05/22 09:57:02;;;;;;;4.60;2.00;;;;;;;24.11;29.04;100697.98;108755;1257;62738;-61
2023/05/22 09:59:30;;;;;;;4.70;2.20;;;;;;;24.18;28.64;100690.93;108767;1257;65806;-60
2023/05/22 10:01:57;;;;;;;6.80;2.30;;;;;;;24.17;28.84;100692.33;108660;1256;58061;-60
2023/05/22 10:04:24;;;;;;;4.60;2.10;;;;;;;24.09;29.14;100693.55;108662;1256;58668;-60
2023/05/22 10:06:54;;;;;;;4.60;2.10;;;;;;;24.03;29.06;100690.96;108885;1256;66485;-62
2023/05/22 10:09:23;;;;;;;6.70;2.20;;;;;;;24.02;29.07;100688.84;108790;1257;62036;-63
2023/05/22 10:11:54;;;;;;;5.20;2.10;;;;;;;24.07;29.46;100684.91;108723;1257;64991;-65
2023/05/22 10:14:21;;;;;;;3.40;1.90;;;;;;;24.16;30.04;100683.19;108714;1257;59499;-59
2023/05/22 10:16:48;;;;;;;4.20;2.00;;;;;;;24.29;30.09;100684.61;108912;1256;57863;-60
2023/05/22 10:19:15;;;;;;;4.40;1.90;;;;;;;24.43;28.75;100681.68;108725;1257;66456;-61
2023/05/22 10:21:42;;;;;;;6.10;2.10;;;;;;;24.52;28.33;100679.24;108719;1257;62925;-61
2023/05/22 10:24:09;;;;;;;4.60;1.80;;;;;;;24.65;28.13;100672.05;108728;1257;66403;-61
2023/05/22 10:26:36;;;;;;;6.20;2.10;;;;;;;24.79;27.77;100668.20;108779;1257;57649;-63
2023/05/22 10:29:10;;;;;;;5.00;2.20;;;;;;;24.93;27.11;100669.36;108835;1256;59524;-60
2023/05/22 10:32:06;;;;;;;7.60;2.30;;;;;;;25.01;27.35;100670.45;108700;1256;68187;-60
2023/05/22 10:35:00;;;;;;;4.10;2.00;;;;;;;25.02;27.29;100672.73;108832;1257;62648;-63
2023/05/22 10:37:31;;;;;;;5.10;1.70;;;;;;;24.99;27.54;100670.37;108780;1257;65142;-63
2023/05/22 10:40:05;;;;;;;5.60;2.20;;;;;;;24.99;27.52;100668.84;108745;1257;57402;-61
2023/05/22 10:42:32;;;;;;;4.80;2.20;;;;;;;24.94;27.54;100662.48;108735;1257;58545;-58
2023/05/22 10:45:03;;;;;;;5.70;2.60;;;;;;;24.90;27.09;100662.15;108760;1257;66440;-63
2023/05/22 10:47:32;;;;;;;3.90;2.00;;;;;;;24.85;27.68;100661.46;108741;1256;62701;-61
2023/05/22 10:50:06;;;;;;;6.00;2.00;;;;;;;24.87;28.04;100657.27;108780;1256;66239;-62
2023/05/22 10:52:37;;;;;;;7.10;1.90;;;;;;;24.94;27.72;100656.34;108783;1257;58462;-64
2023/05/22 10:55:08;;;;;;;3.90;1.70;;;;;;;25.02;27.52;100653.42;108677;1258;58565;-62
2023/05/22 10:57:38;;;;;;;4.40;1.90;;;;;;;25.11;26.94;100644.83;108803;1256;68064;-61
2023/05/22 11:00:10;;;;;;;5.40;2.10;;;;;;;25.22;26.99;100637.38;108770;1256;63665;-63
2023/05/22 11:02:39;;;;;;;5.70;2.00;;;;;;;25.39;27.58;100638.86;108788;1256;66568;-63
2023/05/22 11:05:15;;;;;;;5.70;1.80;;;;;;;25.55;27.54;100636.81;108713;1257;58976;-62
2023/05/22 11:07:42;;;;;;;6.20;2.10;;;;;;;25.67;26.84;100634.73;108877;1257;58300;-63
2023/05/22 11:10:10;;;;;;;4.50;1.80;;;;;;;25.72;26.50;100636.72;108767;1256;66113;-62
2023/05/22 11:12:37;;;;;;;5.20;1.80;;;;;;;25.75;27.03;100638.56;108850;1256;72321;-64
2023/05/22 11:15:04;;;;;;;3.70;1.30;;;;;;;25.83;27.19;100638.81;108564;1256;73246;-65
2023/05/22 11:17:38;;;;;;;5.20;1.90;;;;;;;25.92;26.76;100634.53;108766;1257;58219;-62
2023/05/22 11:20:11;;;;;;;4.50;2.20;;;;;;;26.08;26.22;100626.14;108823;1256;58793;-64
2023/05/22 11:22:40;;;;;;;6.10;1.90;;;;;;;26.30;25.61;100625.70;108787;1256;67209;-64
2023/05/22 11:25:09;;;;;;;5.00;1.90;;;;;;;26.52;25.57;100629.20;108817;1260;62823;-64
2023/05/22 11:39:34;;;;;;;;;;;;;;;26.27;25.45;100621.13;102882;1283;604985;-63
2023/05/22 11:42:03;;;;;;;5.30;2.40;;;;;;;26.43;25.39;100614.80;108084;1266;114897;-62
2023/05/22 11:44:30;;;;;;;6.10;2.10;;;;;;;26.27;25.18;100615.11;108482;1262;58852;-62
2023/05/22 11:46:57;;;;;;;4.50;1.80;;;;;;;26.14;25.67;100613.30;108498;1262;65430;-61
2023/05/22 11:49:24;;;;;;;4.00;1.60;;;;;;;26.07;25.10;100613.45;108629;1263;64069;-62
2023/05/22 11:51:51;;;;;;;4.20;1.90;;;;;;;26.09;25.12;100610.32;108542;1263;66081;-62
2023/05/22 11:54:18;;;;;;;4.00;1.80;;;;;;;26.10;25.42;100615.05;108498;1261;57313;-61
2023/05/22 11:56:46;;;;;;;6.60;2.20;;;;;;;26.06;24.94;100613.20;108606;1261;57731;-63
2023/05/22 11:59:13;;;;;;;4.40;2.20;;;;;;;26.02;24.93;100614.81;108356;1262;63400;-60
2023/05/22 12:01:40;;;;;;;4.50;1.80;;;;;;;26.08;25.01;100608.17;108426;1262;61334;-63
2023/05/22 12:04:08;;;;;;;4.10;1.80;;;;;;;26.26;25.48;100605.98;108414;1262;62570;-60
2023/05/22 12:06:35;;;;;;;8.40;2.00;;;;;;;26.50;25.29;100599.30;107262;1263;57811;-61